Time;durP1;ratioP1;P1;durP2;ratioP2;P2;SDS_P1;SDS_P2;PMS_P1;PMS_P2;Temp;Humidity;BMP_temperature;BMP_pressure;BME280_temperature;BME280_humidity;BME280_pressure;Samples;Min_cycle;Max_cycle;Signal;HPM_P1;HPM_P2
2022/07/13 00:00:08;;;;;;;2.00;1.90;;;19.00;49.70;;;;;;5125145;28;20471;-84
2022/07/13 00:02:35;;;;;;;2.40;1.83;;;18.90;49.80;;;;;;5125378;28;20492;-85
2022/07/13 00:05:03;;;;;;;2.20;1.40;;;18.90;50.00;;;;;;5125065;27;20585;-85
2022/07/13 00:07:31;;;;;;;3.10;1.40;;;18.90;50.40;;;;;;5125065;27;20465;-85
2022/07/13 00:10:00;;;;;;;3.90;1.67;;;18.80;50.70;;;;;;5122351;28;20448;-86
2022/07/13 00:12:27;;;;;;;2.93;1.70;;;18.80;50.90;;;;;;5122426;27;20463;-86
2022/07/13 00:14:54;;;;;;;2.07;1.50;;;18.80;50.70;;;;;;5123161;28;20458;-87
2022/07/13 00:17:21;;;;;;;1.73;1.63;;;18.70;50.60;;;;;;5123211;27;20522;-86
2022/07/13 00:19:49;;;;;;;1.30;1.20;;;18.70;50.70;;;;;;5123990;27;20466;-86
2022/07/13 00:22:17;;;;;;;1.70;1.60;;;18.70;50.80;;;;;;5134323;27;20421;-87
2022/07/13 00:24:45;;;;;;;1.60;1.50;;;18.70;50.50;;;;;;5139339;27;20450;-87
2022/07/13 00:27:12;;;;;;;1.20;1.20;;;18.70;50.20;;;;;;5139389;27;20510;-86
2022/07/13 00:29:39;;;;;;;2.23;1.40;;;18.70;50.20;;;;;;5138987;27;20493;-86
2022/07/13 00:32:06;;;;;;;1.97;1.50;;;18.70;50.20;;;;;;5138435;27;20528;-86
2022/07/13 00:34:33;;;;;;;2.80;1.40;;;18.80;50.10;;;;;;5137357;27;20439;-86
2022/07/13 00:37:05;;;;;;;1.33;1.23;;;18.90;49.80;;;;;;5137805;27;20474;-87
2022/07/13 00:39:32;;;;;;;2.07;1.87;;;19.00;48.90;;;;;;5137786;27;20446;-87
2022/07/13 00:42:01;;;;;;;1.40;1.30;;;19.00;49.30;;;;;;5138219;28;20468;-87
2022/07/13 00:44:28;;;;;;;2.40;1.27;;;19.00;48.00;;;;;;5137317;28;20428;-86
2022/07/13 00:46:56;;;;;;;1.40;1.30;;;19.10;48.00;;;;;;5137367;27;20455;-86
2022/07/13 00:49:24;;;;;;;1.47;1.37;;;19.20;48.10;;;;;;5138040;27;20462;-87
2022/07/13 00:51:51;;;;;;;1.23;1.13;;;19.20;48.10;;;;;;5137421;28;20488;-86
2022/07/13 00:54:28;;;;;;;2.50;1.53;;;19.20;48.10;;;;;;5132750;27;20519;-87
2022/07/13 00:56:56;;;;;;;1.50;1.23;;;19.20;48.10;;;;;;5134623;27;20483;-87
2022/07/13 00:59:26;;;;;;;5.03;1.60;;;19.20;48.10;;;;;;5138670;27;20485;-86
2022/07/13 01:01:54;;;;;;;1.50;1.40;;;19.20;48.80;;;;;;5138513;27;20438;-86
2022/07/13 01:04:23;;;;;;;5.03;2.20;;;19.20;48.10;;;;;;5138655;27;20438;-86
2022/07/13 01:20:44;;;;;;;1.70;1.47;;;19.20;47.30;;;;;;5764733;22;20476;-86
2022/07/13 01:23:19;;;;;;;1.27;1.17;;;19.10;47.30;;;;;;5389362;22;20451;-86
2022/07/13 01:26:07;;;;;;;1.57;1.00;;;18.90;47.40;;;;;;5803381;22;20666;-85
2022/07/13 01:28:34;;;;;;;1.23;1.13;;;18.90;47.40;;;;;;5130549;27;20458;-85
2022/07/13 01:31:01;;;;;;;2.60;1.30;;;18.80;47.40;;;;;;5125824;27;20435;-85
2022/07/13 01:55:12;;;;;;;1.50;1.40;;;18.60;48.30;;;;;;5359982;22;20495;-85
2022/07/13 01:57:56;;;;;;;1.73;1.30;;;18.60;47.60;;;;;;5142080;27;20412;-86
2022/07/13 02:00:24;;;;;;;1.10;1.00;;;18.70;47.60;;;;;;5132465;27;20778;-86
2022/07/13 02:02:52;;;;;;;2.40;1.40;;;18.70;47.60;;;;;;5142038;27;20453;-87
2022/07/13 02:05:22;;;;;;;1.27;1.27;;;18.70;47.60;;;;;;5141991;27;20443;-86
2022/07/13 02:07:49;;;;;;;2.10;1.27;;;18.70;47.60;;;;;;5139800;27;20454;-86
2022/07/13 02:10:17;;;;;;;2.47;1.03;;;18.70;47.40;;;;;;5124484;28;20478;-85
2022/07/13 02:12:44;;;;;;;1.07;0.97;;;18.70;46.60;;;;;;5123198;28;20479;-86
2022/07/13 02:15:31;;;;;;;1.10;1.00;;;18.70;46.40;;;;;;5125290;28;20837;-86
2022/07/13 02:40:21;;;;;;;1.43;1.33;;;18.20;47.20;;;;;;5285713;22;20471;-86
2022/07/13 02:42:48;;;;;;;1.03;1.03;;;18.20;47.20;;;;;;5138040;27;20393;-87
2022/07/13 02:45:15;;;;;;;1.47;1.37;;;18.10;47.10;;;;;;5124267;28;20592;-86
2022/07/13 02:47:50;;;;;;;5.83;1.03;;;18.10;47.80;;;;;;5125646;27;20439;-86
2022/07/13 02:50:17;;;;;;;1.00;1.00;;;18.00;48.20;;;;;;5126194;28;20484;-87
2022/07/13 02:52:44;;;;;;;1.30;1.20;;;18.00;48.60;;;;;;5124297;28;20463;-87
2022/07/13 02:55:12;;;;;;;1.30;1.20;;;17.90;49.30;;;;;;5124450;27;20818;-86
2022/07/13 02:57:40;;;;;;;2.10;1.40;;;17.90;49.40;;;;;;5126016;28;20460;-86
2022/07/13 03:00:08;;;;;;;4.17;1.23;;;17.80;49.40;;;;;;5133731;27;20445;-85
2022/07/13 03:02:36;;;;;;;1.17;1.10;;;17.80;50.10;;;;;;5125297;28;20847;-87
2022/07/13 03:05:03;;;;;;;2.07;1.30;;;17.80;50.40;;;;;;5124151;28;20795;-86
2022/07/13 03:07:30;;;;;;;1.90;1.37;;;17.70;50.70;;;;;;5124092;28;20435;-85
2022/07/13 03:09:57;;;;;;;1.10;1.00;;;17.60;51.40;;;;;;5123640;28;20474;-86
2022/07/13 03:12:27;;;;;;;1.50;1.40;;;17.60;51.50;;;;;;5124258;28;20445;-87
2022/07/13 03:17:56;;;;;;;1.83;1.30;;;17.50;51.40;;;;;;5139592;27;20438;-86
2022/07/13 03:20:27;;;;;;;1.60;1.50;;;17.50;51.70;;;;;;5140421;27;20451;-86
2022/07/13 03:22:55;;;;;;;1.30;1.20;;;17.40;51.90;;;;;;5139715;28;20426;-87
2022/07/13 03:25:23;;;;;;;1.60;1.50;;;17.30;52.60;;;;;;5138323;28;20456;-86
2022/07/13 03:33:03;;;;;;;1.73;1.63;;;17.40;52.90;;;;;;5790951;22;20504;-76
2022/07/13 03:35:29;;;;;;;1.87;1.77;;;17.40;53.10;;;;;;5126323;28;20944;-77
2022/07/13 03:37:56;;;;;;;1.80;1.50;;;17.40;53.00;;;;;;5127729;28;20521;-79
2022/07/13 03:40:24;;;;;;;2.17;1.97;;;17.40;53.50;;;;;;5122917;28;20435;-76
2022/07/13 03:42:51;;;;;;;4.57;1.50;;;17.40;53.60;;;;;;5114971;28;20543;-77
2022/07/13 03:45:18;;;;;;;2.43;1.40;;;17.40;53.70;;;;;;5115510;28;20450;-77
2022/07/13 03:47:45;;;;;;;2.23;1.40;;;17.50;53.40;;;;;;5115284;28;20462;-77
2022/07/13 03:50:13;;;;;;;1.10;1.10;;;17.60;53.30;;;;;;5115339;28;20521;-77
2022/07/13 03:52:40;;;;;;;2.00;1.20;;;17.60;53.30;;;;;;5114771;28;20493;-77
2022/07/13 03:55:08;;;;;;;1.90;1.33;;;17.70;53.40;;;;;;5115384;28;20533;-77
2022/07/13 03:57:35;;;;;;;4.57;1.50;;;17.70;52.80;;;;;;5116812;28;20438;-77
2022/07/13 04:00:02;;;;;;;1.10;1.10;;;17.80;52.30;;;;;;5115676;28;20486;-78
2022/07/13 04:02:29;;;;;;;1.53;1.20;;;17.80;52.20;;;;;;5116656;28;20458;-78
2022/07/13 04:04:56;;;;;;;2.90;1.60;;;17.90;51.20;;;;;;5117759;28;20454;-77
2022/07/13 04:07:24;;;;;;;1.63;1.50;;;18.00;51.20;;;;;;5129925;28;20507;-79
2022/07/13 04:09:51;;;;;;;1.53;1.43;;;18.00;51.70;;;;;;5127891;28;20423;-79
2022/07/13 04:12:21;;;;;;;1.50;1.40;;;18.00;52.00;;;;;;5128253;28;20467;-80
2022/07/13 04:14:48;;;;;;;2.07;1.57;;;18.00;52.80;;;;;;5126102;28;20459;-80
2022/07/13 04:17:15;;;;;;;1.60;1.40;;;18.00;51.70;;;;;;5132987;27;20447;-79
2022/07/13 04:19:41;;;;;;;1.60;1.50;;;18.00;51.70;;;;;;5136927;27;20442;-78
2022/07/13 04:22:08;;;;;;;1.50;1.40;;;18.00;51.40;;;;;;5130121;28;20817;-79
2022/07/13 04:24:36;;;;;;;2.50;1.50;;;18.10;51.20;;;;;;5126641;28;20504;-78
2022/07/13 04:27:04;;;;;;;1.17;1.17;;;18.10;50.80;;;;;;5120345;28;20946;-79
2022/07/13 04:29:31;;;;;;;5.20;1.60;;;18.20;50.00;;;;;;5118939;28;20478;-79
2022/07/13 04:31:57;;;;;;;1.37;1.20;;;18.20;49.40;;;;;;5117261;28;20593;-76
2022/07/13 04:34:24;;;;;;;1.70;1.40;;;18.30;49.70;;;;;;5115022;28;20475;-77
2022/07/13 04:36:51;;;;;;;1.60;1.50;;;18.40;49.00;;;;;;5115601;28;20453;-77
2022/07/13 04:39:18;;;;;;;1.03;1.03;;;18.70;48.80;;;;;;5116244;28;20447;-77
2022/07/13 04:41:47;;;;;;;2.00;1.30;;;18.90;47.80;;;;;;5115392;28;20421;-76
2022/07/13 04:44:13;;;;;;;1.23;1.13;;;19.00;47.90;;;;;;5116069;28;20525;-78
2022/07/13 04:46:40;;;;;;;2.43;1.53;;;19.10;47.10;;;;;;5117658;28;20420;-79
2022/07/13 04:49:07;;;;;;;1.77;1.40;;;19.20;46.60;;;;;;5127387;28;20442;-78
2022/07/13 04:51:35;;;;;;;4.03;1.60;;;19.10;46.90;;;;;;5125726;28;20435;-79
2022/07/13 04:54:02;;;;;;;1.50;1.40;;;19.30;46.40;;;;;;5132121;28;20525;-78
2022/07/13 04:56:29;;;;;;;3.33;1.40;;;19.30;46.50;;;;;;5134730;28;20440;-76
2022/07/13 04:58:57;;;;;;;3.27;1.50;;;19.50;46.60;;;;;;5128671;28;20460;-76
2022/07/13 05:01:24;;;;;;;5.37;1.70;;;19.80;45.90;;;;;;5115107;28;20429;-77
2022/07/13 05:03:51;;;;;;;1.93;1.23;;;20.00;44.40;;;;;;5114936;28;20527;-77
2022/07/13 05:06:17;;;;;;;2.37;1.40;;;20.10;44.60;;;;;;5114686;28;20837;-77
2022/07/13 05:08:44;;;;;;;1.50;1.27;;;20.40;43.40;;;;;;5114892;28;20550;-76
2022/07/13 05:11:11;;;;;;;3.07;1.40;;;20.70;42.10;;;;;;5118171;28;20428;-79
2022/07/13 05:13:38;;;;;;;1.53;1.40;;;20.90;41.30;;;;;;5122154;28;20513;-79
2022/07/13 05:16:07;;;;;;;2.30;1.33;;;21.10;40.80;;;;;;5122605;28;20438;-79
2022/07/13 05:18:34;;;;;;;2.00;1.50;;;21.20;40.30;;;;;;5124354;28;20507;-79
2022/07/13 05:21:02;;;;;;;1.57;1.20;;;21.30;40.00;;;;;;5123775;28;20504;-79
2022/07/13 05:23:29;;;;;;;2.83;1.40;;;21.40;40.10;;;;;;5121053;28;20487;-78
2022/07/13 05:25:56;;;;;;;1.83;1.47;;;21.60;40.40;;;;;;5116641;28;20923;-76
2022/07/13 05:28:23;;;;;;;3.07;1.60;;;21.60;40.30;;;;;;5116724;28;20451;-77
2022/07/13 05:30:50;;;;;;;3.03;1.60;;;21.70;40.40;;;;;;5116802;28;20453;-77
2022/07/13 05:33:20;;;;;;;3.23;1.40;;;21.40;40.10;;;;;;5117053;28;20486;-78
2022/07/13 05:35:47;;;;;;;2.40;1.37;;;21.40;40.10;;;;;;5119703;28;20455;-77
2022/07/13 05:38:14;;;;;;;2.40;2.20;;;21.50;40.20;;;;;;5130770;28;20483;-78
2022/07/13 05:40:41;;;;;;;1.80;1.50;;;21.60;41.10;;;;;;5137206;27;20451;-78
2022/07/13 05:43:08;;;;;;;1.80;1.40;;;21.70;40.40;;;;;;5138215;27;20447;-77
2022/07/13 05:45:35;;;;;;;4.53;1.20;;;21.90;40.00;;;;;;5135478;27;20442;-79
2022/07/13 05:48:02;;;;;;;5.13;2.03;;;22.00;39.30;;;;;;5129956;28;20474;-80
2022/07/13 05:50:30;;;;;;;2.73;1.80;;;22.20;39.20;;;;;;5129478;28;20442;-79
2022/07/13 05:52:57;;;;;;;3.63;1.70;;;22.30;38.70;;;;;;5129871;28;20584;-79
2022/07/13 05:55:24;;;;;;;2.30;1.43;;;22.30;38.60;;;;;;5127359;28;20478;-78
2022/07/13 05:57:51;;;;;;;7.40;1.70;;;22.20;39.00;;;;;;5119733;28;20486;-77
2022/07/13 06:00:18;;;;;;;2.03;1.33;;;22.40;38.80;;;;;;5116538;28;20505;-77
2022/07/13 06:02:45;;;;;;;2.03;1.30;;;22.50;37.70;;;;;;5116118;28;20445;-79
2022/07/13 06:05:12;;;;;;;1.60;1.47;;;22.70;37.20;;;;;;5117101;28;20420;-79
2022/07/13 06:07:41;;;;;;;6.77;1.60;;;22.90;37.00;;;;;;5121741;28;20532;-78
2022/07/13 06:10:09;;;;;;;5.70;1.77;;;23.20;36.60;;;;;;5122868;28;20437;-78
2022/07/13 06:12:36;;;;;;;1.90;1.43;;;23.50;36.10;;;;;;5119193;28;20495;-78
2022/07/13 06:15:04;;;;;;;4.47;1.70;;;23.70;35.00;;;;;;5119807;28;20459;-79
2022/07/13 06:17:31;;;;;;;3.97;1.50;;;24.00;35.10;;;;;;5122134;28;20439;-79
2022/07/13 06:19:58;;;;;;;6.00;1.80;;;23.70;35.50;;;;;;5117992;28;20453;-78
2022/07/13 06:22:25;;;;;;;9.97;1.70;;;23.10;38.10;;;;;;5118667;28;20512;-79
2022/07/13 06:25:03;;;;;;;1.73;1.37;;;22.80;38.70;;;;;;5121435;28;20420;-78
2022/07/13 06:27:30;;;;;;;4.20;1.83;;;23.30;37.60;;;;;;5120664;28;20511;-77
2022/07/13 06:29:57;;;;;;;2.27;1.30;;;24.20;35.30;;;;;;5119959;28;20965;-76
2022/07/13 06:32:29;;;;;;;4.10;1.57;;;24.80;34.00;;;;;;5120562;28;20965;-76
2022/07/13 06:34:57;;;;;;;7.87;1.30;;;25.20;32.60;;;;;;5125428;28;20476;-78
2022/07/13 06:37:24;;;;;;;4.70;1.73;;;25.10;33.20;;;;;;5127329;28;20454;-79
2022/07/13 06:39:51;;;;;;;4.30;1.57;;;25.50;31.60;;;;;;5126252;28;20493;-77
2022/07/13 06:42:22;;;;;;;2.60;1.43;;;25.70;30.60;;;;;;5123122;28;20429;-75
2022/07/13 06:44:49;;;;;;;2.83;1.43;;;26.10;29.90;;;;;;5124678;28;20533;-77
2022/07/13 06:47:16;;;;;;;4.37;1.37;;;25.10;32.50;;;;;;5122300;28;20474;-76
2022/07/13 06:49:43;;;;;;;2.93;1.37;;;25.50;31.60;;;;;;5125971;28;20550;-77
2022/07/13 06:52:10;;;;;;;3.40;1.63;;;26.00;30.20;;;;;;5122021;28;20424;-77
2022/07/13 06:54:37;;;;;;;4.37;1.37;;;26.40;29.20;;;;;;5118994;28;20542;-76
2022/07/13 06:57:04;;;;;;;2.57;1.40;;;26.60;28.80;;;;;;5122981;28;20494;-78
2022/07/13 06:59:33;;;;;;;1.97;1.50;;;27.00;28.40;;;;;;5122044;28;20500;-77
2022/07/13 07:02:00;;;;;;;2.03;1.17;;;27.50;27.80;;;;;;5128331;28;20501;-77
2022/07/13 07:04:27;;;;;;;1.47;1.37;;;27.10;28.50;;;;;;5130304;28;20492;-78
2022/07/13 07:06:54;;;;;;;2.90;1.67;;;25.70;31.40;;;;;;5123905;28;20509;-78
2022/07/13 07:09:21;;;;;;;4.37;1.73;;;25.70;31.10;;;;;;5122600;28;20527;-77
2022/07/13 07:11:48;;;;;;;2.20;1.60;;;26.40;29.20;;;;;;5122179;28;20507;-77
2022/07/13 07:14:15;;;;;;;2.20;1.57;;;26.80;27.80;;;;;;5123046;28;20489;-76
2022/07/13 07:16:44;;;;;;;2.70;1.40;;;27.10;27.50;;;;;;5123360;28;20457;-77
2022/07/13 07:19:11;;;;;;;3.60;2.00;;;27.10;27.90;;;;;;5125567;28;20477;-78
2022/07/13 07:21:38;;;;;;;4.27;2.00;;;27.40;27.60;;;;;;5124641;28;20516;-78
2022/07/13 07:24:05;;;;;;;2.23;1.60;;;27.30;27.70;;;;;;5125688;28;20483;-77
2022/07/13 07:26:32;;;;;;;5.50;2.33;;;27.20;28.20;;;;;;5124143;28;20442;-77
2022/07/13 07:28:59;;;;;;;4.03;2.20;;;27.00;28.50;;;;;;5125913;28;20457;-78
2022/07/13 07:31:26;;;;;;;3.20;1.87;;;26.30;30.00;;;;;;5136303;28;20518;-78
2022/07/13 07:33:54;;;;;;;4.00;2.37;;;26.40;30.10;;;;;;5138533;28;20457;-78
2022/07/13 07:36:22;;;;;;;3.00;2.10;;;26.60;29.30;;;;;;5138634;27;20464;-79
2022/07/13 07:38:49;;;;;;;10.40;2.40;;;26.30;30.20;;;;;;5134690;28;20488;-78
2022/07/13 07:41:16;;;;;;;5.33;2.57;;;26.70;29.30;;;;;;5139169;27;20435;-78
2022/07/13 07:43:43;;;;;;;9.50;2.83;;;26.90;29.10;;;;;;5138367;28;20464;-77
2022/07/13 07:46:10;;;;;;;5.30;2.17;;;27.10;29.00;;;;;;5128682;28;20532;-77
2022/07/13 07:48:36;;;;;;;7.80;3.13;;;27.30;28.50;;;;;;5122030;28;20452;-79
2022/07/13 07:51:05;;;;;;;3.80;2.30;;;27.60;27.90;;;;;;5116969;28;20791;-77
2022/07/13 07:53:32;;;;;;;7.07;2.40;;;27.90;27.20;;;;;;5122888;28;20809;-76
2022/07/13 07:56:00;;;;;;;8.03;2.33;;;27.30;28.60;;;;;;5117342;28;20508;-76
2022/07/13 07:58:27;;;;;;;3.70;1.97;;;27.70;28.00;;;;;;5124731;28;20524;-79
2022/07/13 08:00:54;;;;;;;3.97;2.17;;;27.80;27.70;;;;;;5121262;28;20427;-77
2022/07/13 08:03:21;;;;;;;7.80;2.23;;;27.60;27.90;;;;;;5118911;28;20468;-77
2022/07/13 08:05:51;;;;;;;3.37;1.93;;;27.40;28.30;;;;;;5117198;28;20449;-78
2022/07/13 08:08:20;;;;;;;7.67;3.40;;;27.10;28.80;;;;;;5116557;28;20433;-78
2022/07/13 08:10:47;;;;;;;5.60;3.30;;;26.90;29.50;;;;;;5119139;28;20534;-76
2022/07/13 08:13:14;;;;;;;3.30;2.50;;;26.70;29.80;;;;;;5116409;28;20487;-78
2022/07/13 08:15:41;;;;;;;5.93;2.83;;;26.60;30.30;;;;;;5116017;28;20938;-77
2022/07/13 08:18:09;;;;;;;6.03;3.63;;;26.00;32.10;;;;;;5118386;28;20798;-78
2022/07/13 08:20:36;;;;;;;3.07;2.60;;;26.00;32.00;;;;;;5122172;28;20937;-77
2022/07/13 08:23:50;;;;;;;4.57;3.07;;;26.30;30.40;;;;;;5120509;28;20453;-77
2022/07/13 08:25:53;;;;;;;7.63;2.40;;;26.80;29.60;;;;;;5125692;28;20465;-79
2022/07/13 08:28:20;;;;;;;4.13;2.40;;;27.00;30.00;;;;;;5124069;28;20427;-76
2022/07/13 08:30:47;;;;;;;5.23;3.17;;;27.20;28.70;;;;;;5127217;28;20443;-78
2022/07/13 08:33:14;;;;;;;3.57;2.43;;;27.50;28.40;;;;;;5133221;28;20463;-75
2022/07/13 08:38:38;;;;;;;5.50;2.60;;;27.30;27.90;;;;;;5122847;28;20777;-77
2022/07/13 08:41:06;;;;;;;5.93;2.30;;;27.20;28.00;;;;;;5130619;28;20444;-77
2022/07/13 08:43:34;;;;;;;2.77;2.00;;;27.30;28.00;;;;;;5118575;28;20969;-76
2022/07/13 08:46:06;;;;;;;10.27;2.10;;;27.40;26.60;;;;;;5126545;28;20456;-77
2022/07/13 08:48:38;;;;;;;2.80;1.90;;;27.40;26.80;;;;;;5127599;28;20543;-78
2022/07/13 08:51:07;;;;;;;4.10;1.77;;;27.60;26.60;;;;;;5133061;28;20476;-79
2022/07/13 08:53:34;;;;;;;4.23;1.83;;;27.60;26.40;;;;;;5129835;28;20481;-79
2022/07/13 08:56:02;;;;;;;9.27;2.00;;;27.80;25.80;;;;;;5131124;28;20454;-77
2022/07/13 08:58:30;;;;;;;4.93;2.00;;;27.80;24.60;;;;;;5135046;28;20429;-78
2022/07/13 09:00:57;;;;;;;4.33;1.67;;;27.90;25.90;;;;;;5127145;28;20508;-78
2022/07/13 09:03:24;;;;;;;4.33;2.00;;;28.10;25.60;;;;;;5120486;28;20483;-78
2022/07/13 09:05:54;;;;;;;1.83;1.70;;;27.90;25.80;;;;;;5126807;28;20415;-78
2022/07/13 09:08:21;;;;;;;2.27;1.53;;;27.20;25.60;;;;;;5137671;27;20425;-78
2022/07/13 09:10:56;;;;;;;4.40;1.20;;;27.50;26.10;;;;;;5138172;27;20431;-78
2022/07/13 09:13:39;;;;;;;2.73;1.47;;;27.90;24.90;;;;;;5138641;27;20495;-79
2022/07/13 09:16:18;;;;;;;1.47;1.30;;;27.90;23.00;;;;;;5138433;27;20421;-79
2022/07/13 09:18:46;;;;;;;3.00;1.40;;;28.10;23.70;;;;;;5138273;27;20400;-77
2022/07/13 09:21:13;;;;;;;1.43;1.33;;;28.00;23.00;;;;;;5137469;27;20513;-79
2022/07/13 09:23:40;;;;;;;3.00;1.10;;;28.00;23.30;;;;;;5137869;27;20465;-78
2022/07/13 09:26:07;;;;;;;1.40;0.93;;;28.10;21.70;;;;;;5137656;27;20449;-76
2022/07/13 09:28:47;;;;;;;5.90;1.43;;;27.90;22.50;;;;;;5133146;28;20431;-79
2022/07/13 09:31:15;;;;;;;1.73;1.20;;;27.90;23.00;;;;;;5122682;28;20506;-77
2022/07/13 09:33:44;;;;;;;3.10;1.00;;;28.30;22.10;;;;;;5122481;28;20596;-77
2022/07/13 09:36:12;;;;;;;1.50;1.00;;;28.60;21.10;;;;;;5122790;28;20464;-78
2022/07/13 09:38:43;;;;;;;3.23;1.20;;;28.40;21.40;;;;;;5123857;28;20988;-77
2022/07/13 09:41:21;;;;;;;0.60;0.60;;;28.50;20.80;;;;;;5121919;28;20422;-78
2022/07/13 09:47:02;;;;;;;0.90;0.90;;;29.30;18.20;;;;;;5058924;28;20466;-78
2022/07/13 09:49:31;;;;;;;5.03;0.80;;;29.40;17.40;;;;;;5059915;28;20425;-77
2022/07/13 09:51:58;;;;;;;1.87;1.03;;;29.70;18.30;;;;;;5087165;28;20450;-78
2022/07/13 09:54:28;;;;;;;3.90;1.30;;;30.30;17.80;;;;;;5126734;28;20869;-78
2022/07/13 09:56:59;;;;;;;2.63;1.20;;;30.90;17.40;;;;;;5120024;28;20457;-78
2022/07/13 09:59:29;;;;;;;2.40;0.83;;;31.30;16.90;;;;;;5122367;28;20423;-77
2022/07/13 10:01:57;;;;;;;1.17;0.70;;;31.40;16.60;;;;;;5127626;28;20499;-79
2022/07/13 10:04:24;;;;;;;0.80;0.70;;;31.50;15.70;;;;;;5128048;28;20471;-78
2022/07/13 10:06:51;;;;;;;2.43;1.00;;;31.90;13.90;;;;;;5120694;28;20459;-78
2022/07/13 10:09:20;;;;;;;2.33;0.90;;;32.40;14.60;;;;;;5126608;28;20450;-77
2022/07/13 10:11:50;;;;;;;1.10;1.10;;;32.20;13.80;;;;;;5131986;28;20502;-77
2022/07/13 10:14:19;;;;;;;2.43;1.10;;;32.20;14.50;;;;;;5135773;28;20502;-76
2022/07/13 10:16:47;;;;;;;1.43;0.83;;;32.10;14.10;;;;;;5131367;28;20476;-78
2022/07/13 10:19:15;;;;;;;1.47;0.90;;;31.70;15.30;;;;;;5135675;28;20469;-77
2022/07/13 10:22:02;;;;;;;2.67;1.23;;;31.80;15.10;;;;;;5124525;28;20523;-77
2022/07/13 10:24:30;;;;;;;1.20;1.10;;;31.50;15.50;;;;;;5120002;28;20519;-78
2022/07/13 10:27:29;;;;;;;2.50;0.90;;;31.50;14.80;;;;;;5124001;28;20504;-78
2022/07/13 10:29:57;;;;;;;1.10;1.10;;;31.50;15.00;;;;;;5119085;28;20538;-77
2022/07/13 10:32:28;;;;;;;0.97;0.80;;;31.50;15.00;;;;;;5119966;28;20485;-76
2022/07/13 10:34:59;;;;;;;1.30;0.90;;;31.50;15.00;;;;;;5119786;28;20484;-78
2022/07/13 10:37:26;;;;;;;2.60;1.00;;;31.40;15.60;;;;;;5127513;28;20500;-78
2022/07/13 10:40:13;;;;;;;4.70;1.13;;;31.20;15.40;;;;;;5121622;28;20456;-77
2022/07/13 10:43:14;;;;;;;1.90;0.93;;;31.20;15.70;;;;;;5121921;28;20489;-78
2022/07/13 10:45:43;;;;;;;2.27;1.20;;;31.40;15.90;;;;;;5124840;28;20445;-76
2022/07/13 10:48:42;;;;;;;1.30;1.20;;;31.30;15.80;;;;;;5130622;28;20620;-76
2022/07/13 10:51:20;;;;;;;1.40;1.20;;;31.40;15.70;;;;;;5118854;28;20428;-78
2022/07/13 10:54:09;;;;;;;0.80;0.80;;;31.20;15.60;;;;;;5118369;28;20474;-76
2022/07/13 10:56:36;;;;;;;1.23;1.00;;;30.80;14.90;;;;;;5118463;28;20430;-79
2022/07/13 10:59:03;;;;;;;1.30;1.20;;;30.60;15.10;;;;;;5119794;28;20432;-77
2022/07/13 11:01:37;;;;;;;2.93;0.97;;;30.60;16.30;;;;;;5124289;28;20545;-77
2022/07/13 11:04:06;;;;;;;1.07;0.93;;;30.70;15.30;;;;;;5136202;28;20467;-75
2022/07/13 11:06:33;;;;;;;0.80;0.70;;;30.80;15.70;;;;;;5126506;28;20438;-78
2022/07/13 11:09:13;;;;;;;1.50;0.90;;;31.00;15.10;;;;;;5122086;28;20459;-78
2022/07/13 11:11:50;;;;;;;1.70;0.70;;;31.10;14.80;;;;;;5122614;28;20912;-78
2022/07/13 11:14:50;;;;;;;0.90;0.90;;;31.10;14.70;;;;;;5124809;28;20485;-78
2022/07/13 11:17:23;;;;;;;0.83;0.83;;;31.30;12.40;;;;;;5118095;28;20424;-77
2022/07/13 11:20:00;;;;;;;1.40;0.73;;;31.10;12.70;;;;;;5130359;28;20432;-79
2022/07/13 11:25:13;;;;;;;3.43;0.87;;;30.90;13.20;;;;;;5123476;28;20490;-78
2022/07/13 11:25:40;;;;;;;0.83;0.80;;;31.10;12.60;;;;;;5121259;28;20416;-77
2022/07/13 11:28:21;;;;;;;0.73;0.70;;;31.40;11.20;;;;;;5128656;28;20521;-78
2022/07/13 11:30:54;;;;;;;4.00;1.00;;;31.70;10.70;;;;;;5129955;28;20515;-77
2022/07/13 11:33:21;;;;;;;3.70;0.70;;;31.70;10.70;;;;;;5128672;28;20490;-76
2022/07/13 11:35:50;;;;;;;1.63;0.90;;;31.60;10.60;;;;;;5125586;28;20508;-78
2022/07/13 11:38:19;;;;;;;0.83;0.73;;;31.70;10.70;;;;;;5124731;28;20440;-78
2022/07/13 11:40:47;;;;;;;0.93;0.90;;;32.10;10.90;;;;;;5127939;28;20422;-78
2022/07/13 11:43:14;;;;;;;0.70;0.70;;;32.30;11.00;;;;;;5125782;28;20475;-79
2022/07/13 11:45:42;;;;;;;2.53;0.97;;;32.60;11.20;;;;;;5129775;28;20441;-79
2022/07/13 11:48:13;;;;;;;1.77;0.90;;;33.00;11.40;;;;;;5128597;28;20441;-77
2022/07/13 11:50:50;;;;;;;0.60;0.60;;;33.50;10.70;;;;;;5128386;28;20975;-78
2022/07/13 11:53:21;;;;;;;0.87;0.87;;;32.20;10.90;;;;;;5126542;28;20494;-78
2022/07/13 11:55:48;;;;;;;1.57;0.90;;;32.30;11.00;;;;;;5121250;28;21011;-79
2022/07/13 11:58:31;;;;;;;0.90;0.90;;;33.10;11.40;;;;;;5123492;28;20535;-78
2022/07/13 12:00:59;;;;;;;0.63;0.63;;;33.60;11.10;;;;;;5121907;28;20443;-75
2022/07/13 12:03:28;;;;;;;2.47;1.10;;;33.90;10.10;;;;;;5123337;28;20446;-79
2022/07/13 12:06:01;;;;;;;3.97;0.60;;;34.10;9.70;;;;;;5130995;28;20452;-79
2022/07/13 12:08:31;;;;;;;1.57;0.80;;;34.40;9.30;;;;;;5127233;28;20457;-77
2022/07/13 12:10:58;;;;;;;3.70;1.00;;;34.60;9.40;;;;;;5119907;28;20465;-78
2022/07/13 12:13:25;;;;;;;1.03;0.70;;;34.70;9.10;;;;;;5118236;28;20505;-77
2022/07/13 12:15:52;;;;;;;0.90;0.80;;;34.60;9.60;;;;;;5118921;28;20493;-77
2022/07/13 12:18:19;;;;;;;1.17;0.87;;;34.60;9.30;;;;;;5117934;28;20514;-78
2022/07/13 12:20:46;;;;;;;9.13;1.10;;;34.10;10.30;;;;;;5118376;28;20459;-77
2022/07/13 12:23:17;;;;;;;3.80;1.30;;;33.20;11.50;;;;;;5121748;28;20501;-77
2022/07/13 12:25:48;;;;;;;8.87;1.17;;;33.80;11.80;;;;;;5122112;28;20409;-79
2022/07/13 12:28:15;;;;;;;5.50;1.20;;;34.30;11.50;;;;;;5122517;28;20488;-77
2022/07/13 12:30:59;;;;;;;1.37;0.90;;;34.50;11.40;;;;;;5119680;28;20456;-78
2022/07/13 12:33:26;;;;;;;1.80;0.83;;;34.70;10.70;;;;;;5123196;28;20518;-78
2022/07/13 12:36:04;;;;;;;3.33;0.70;;;34.80;10.60;;;;;;5125238;28;20485;-77
2022/07/13 12:38:32;;;;;;;1.97;1.07;;;34.80;10.80;;;;;;5125265;28;20419;-79
2022/07/13 12:41:01;;;;;;;2.40;0.87;;;35.00;10.30;;;;;;5125909;28;20467;-78
2022/07/13 12:43:30;;;;;;;2.83;0.90;;;34.90;10.60;;;;;;5123077;28;20515;-79
2022/07/13 12:45:58;;;;;;;1.30;1.00;;;35.00;10.20;;;;;;5120292;28;20465;-78
2022/07/13 12:48:27;;;;;;;1.63;0.90;;;35.00;10.40;;;;;;5118479;28;20580;-78
2022/07/13 12:50:58;;;;;;;1.23;0.90;;;35.10;10.30;;;;;;5122235;28;20464;-78
2022/07/13 12:53:26;;;;;;;1.17;0.70;;;35.10;10.50;;;;;;5124064;28;20472;-79
2022/07/13 12:55:56;;;;;;;4.00;0.80;;;35.10;10.50;;;;;;5122617;28;20481;-78
2022/07/13 12:58:41;;;;;;;4.57;1.40;;;35.00;10.10;;;;;;5121790;28;20452;-78
2022/07/13 13:01:09;;;;;;;1.80;0.70;;;34.60;10.50;;;;;;5116112;28;20502;-78
2022/07/13 13:03:37;;;;;;;1.43;0.90;;;34.20;12.00;;;;;;5115806;28;20559;-77
2022/07/13 13:06:04;;;;;;;4.37;1.20;;;34.00;11.90;;;;;;5125788;28;20507;-78
2022/07/13 13:08:32;;;;;;;1.10;0.90;;;33.60;11.70;;;;;;5129290;28;20497;-77
2022/07/13 13:11:00;;;;;;;0.70;0.70;;;33.20;12.40;;;;;;5122472;28;20423;-77
2022/07/13 13:13:27;;;;;;;2.70;1.07;;;33.50;11.60;;;;;;5120959;28;20479;-78
2022/07/13 13:15:54;;;;;;;4.63;1.10;;;33.00;11.40;;;;;;5124373;28;20489;-77
2022/07/13 13:18:21;;;;;;;1.73;0.90;;;33.00;11.40;;;;;;5127068;28;20463;-77
2022/07/13 13:20:49;;;;;;;0.77;0.77;;;32.90;11.30;;;;;;5124941;28;20441;-78
2022/07/13 13:23:16;;;;;;;4.00;0.70;;;32.90;11.30;;;;;;5118493;28;20479;-79
2022/07/13 13:25:44;;;;;;;2.97;0.80;;;33.00;10.00;;;;;;5118429;28;20567;-78
2022/07/13 13:28:14;;;;;;;0.70;0.70;;;32.90;10.90;;;;;;5128187;28;20486;-78
2022/07/13 13:30:46;;;;;;;3.63;1.00;;;32.90;10.30;;;;;;5133293;28;20444;-77
2022/07/13 13:33:15;;;;;;;2.50;0.63;;;32.90;10.70;;;;;;5137365;27;20490;-78
2022/07/13 13:35:45;;;;;;;0.80;0.80;;;33.00;9.60;;;;;;5136968;27;20992;-76
2022/07/13 13:38:12;;;;;;;1.17;0.70;;;32.80;11.00;;;;;;5132492;28;20513;-78
2022/07/13 13:40:39;;;;;;;7.30;1.53;;;32.50;11.10;;;;;;5118671;28;20422;-79
2022/07/13 13:43:07;;;;;;;4.00;1.07;;;31.90;12.00;;;;;;5117146;28;20438;-79
2022/07/13 13:45:36;;;;;;;1.33;0.80;;;31.70;11.60;;;;;;5118620;28;20448;-78
2022/07/13 13:48:03;;;;;;;2.87;0.70;;;31.90;12.20;;;;;;5121129;28;20850;-78
2022/07/13 13:50:30;;;;;;;1.10;0.73;;;31.90;11.80;;;;;;5122329;28;20885;-77
2022/07/13 13:52:57;;;;;;;0.73;0.70;;;31.90;12.40;;;;;;5118058;28;20809;-78
2022/07/13 13:55:24;;;;;;;0.90;0.70;;;31.70;12.60;;;;;;5116268;28;20449;-78
2022/07/13 13:57:51;;;;;;;3.50;1.00;;;31.50;12.80;;;;;;5117898;28;20492;-78
2022/07/13 14:00:18;;;;;;;1.70;0.80;;;31.30;12.70;;;;;;5121086;28;20447;-77
2022/07/13 14:02:46;;;;;;;2.20;1.00;;;31.20;13.30;;;;;;5118188;28;20481;-77
2022/07/13 14:05:13;;;;;;;5.80;1.00;;;31.00;13.30;;;;;;5114230;28;20541;-77
2022/07/13 14:07:39;;;;;;;2.93;1.07;;;30.90;13.40;;;;;;5118762;28;20981;-78
2022/07/13 14:10:08;;;;;;;1.07;0.80;;;30.80;13.40;;;;;;5117303;28;20528;-78